Timothy C. Allen — WDD4357 — position and weather

sailwx.info

Track history (hours):
 
Tides and Currents Weather Stations Pressure Air Temp Water Temp Dewpoint Dewpoint Depression Visibility Wind Speed Wind Dir Waves Ship Positions

Timothy C. Allen

Owner: American Commercial Lines LLC, Jeffersonville, IN. More information available from US FCC via Universal Licensing System and Coast Guard Vessel Documentation Center.

Last reported at 2018-Jul-20 16:00 UTC. Time now 2018-Jul-20 16:23 UTC.
Position N 29°56' W 093°03'.

Length 37 m; draft 3.2 m.

Type: Towing. MMSI: 367143690.

Date/timePositionNaut miles runAvg speedWind from/ knotsBaromVisibWave heightAir tempDewpointWater temp
2018-Jul-20 16:00N 29°56' W 093°03'0 0.0
2018-Jul-20 15:29N 29°56' W 093°03'0 0.0
2018-Jul-20 14:57N 29°56' W 093°03'0 0.0
2018-Jul-20 14:24N 29°56' W 093°03'0 0.0
2018-Jul-20 14:00N 29°56' W 093°03'0 0.0
2018-Jul-20 13:30N 29°56' W 093°03'0 0.0
2018-Jul-20 12:58N 29°56' W 093°03'0 0.0
2018-Jul-20 12:30N 29°56' W 093°03'0 0.9
2018-Jul-20 12:00N 29°56' W 093°02'2 2.8
2018-Jul-20 11:27N 29°56' W 093°01'0 0.4
2018-Jul-20 10:55N 29°56' W 093°00'0 0.0
2018-Jul-20 10:30N 29°56' W 093°00'0 0.0
2018-Jul-20 09:59N 29°56' W 093°00'0 0.0
2018-Jul-20 09:15N 29°56' W 093°00'1 3.1
2018-Jul-20 09:00N 29°56' W 092°60'2 4.2
2018-Jul-20 08:30N 29°56' W 092°57'2 3.7
2018-Jul-20 08:00N 29°56' W 092°55'1 2.4
2018-Jul-20 07:30N 29°57' W 092°54'0 0.0
2018-Jul-20 07:00N 29°57' W 092°54'0 0.0
2018-Jul-20 06:29N 29°57' W 092°54'0 0.0
2018-Jul-20 06:00N 29°57' W 092°54'0 0.0
2018-Jul-20 05:30N 29°57' W 092°54'0 0.0
2018-Jul-20 05:00N 29°57' W 092°54'0 0.4
2018-Jul-20 04:27N 29°57' W 092°53'1 2.0
2018-Jul-20 04:00N 29°57' W 092°53'0 0.0
2018-Jul-20 03:29N 29°57' W 092°53'0 0.0
2018-Jul-20 02:53N 29°57' W 092°53'0 0.0
2018-Jul-20 02:29N 29°57' W 092°53'0 0.0
2018-Jul-20 02:00N 29°57' W 092°53'0 0.0
2018-Jul-19 13:39N 29°57' W 092°53'0 0.0
2018-Jul-19 13:25N 29°57' W 092°53'0 0.0
2018-Jul-19 12:49N 29°57' W 092°53'0 0.0
2018-Jul-19 12:25N 29°57' W 092°53'0 0.0
2018-Jul-19 11:53N 29°57' W 092°53'0 0.0
2018-Jul-19 11:07N 29°57' W 092°53'0 0.0
2018-Jul-19 10:50N 29°57' W 092°53'0 0.0
2018-Jul-19 08:38N 29°57' W 092°53'0 0.0
2018-Jul-19 08:04N 29°57' W 092°53'0 0.0
2018-Jul-19 07:40N 29°57' W 092°53'0 0.0
2018-Jul-19 07:23N 29°57' W 092°53'0 0.0
2018-Jul-19 06:52N 29°57' W 092°53'0 0.0
2018-Jul-19 06:20N 29°57' W 092°53'0 0.0
2018-Jul-19 05:58N 29°57' W 092°53'26 3.5
2018-Jul-18 22:24N 29°52' W 092°23'2 4.5
2018-Jul-18 22:01N 29°51' W 092°21'3 5.3
2018-Jul-18 21:29N 29°50' W 092°18'2 4.9
2018-Jul-18 21:00N 29°49' W 092°16'2 3.3
2018-Jul-18 20:31N 29°48' W 092°15'3 5.3
2018-Jul-18 20:00N 29°47' W 092°12'3 5.4
2018-Jul-18 19:31N 29°47' W 092°09'3 6.0
2018-Jul-18 19:00N 29°48' W 092°05'3 5.9
2018-Jul-18 18:30N 29°49' W 092°02'3 6.0
2018-Jul-18 18:00N 29°50' W 091°59'3 6.0
2018-Jul-18 17:28N 29°51' W 091°55'50 1.7
2018-Jul-17 12:56N 30°24' W 091°12'0 0.0
2018-Jul-17 12:27N 30°24' W 091°12'95 3.2
2018-Jul-16 06:54N 31°59' W 091°10'3 9.0
2018-Jul-16 06:30N 31°59' W 091°06'5 9.0
2018-Jul-16 05:57N 32°04' W 091°03'4 9.3
2018-Jul-16 05:31N 32°07' W 091°06'4 7.7
2018-Jul-16 05:01N 32°07' W 091°02'4 8.8
2018-Jul-16 04:30N 32°11' W 090°60'5 9.3
2018-Jul-16 04:00N 32°16' W 090°58'5 9.2
2018-Jul-16 03:31N 32°19' W 090°54'3 6.5
2018-Jul-16 03:01N 32°21' W 090°57'3 6.5
2018-Jul-16 02:31N 32°24' W 090°60'4 8.2
2018-Jul-16 02:01N 32°26' W 091°03'5 8.8
2018-Jul-16 01:29N 32°29' W 091°07'4 9.1
2018-Jul-16 01:01N 32°34' W 091°06'5 8.9
2018-Jul-16 00:29N 32°38' W 091°09'4 8.5
2018-Jul-16 00:00N 32°41' W 091°06'4 7.5
2018-Jul-15 23:30N 32°44' W 091°04'  
Track history (hours):
 
Tides and Currents Weather Stations Pressure Air Temp Water Temp Dewpoint Dewpoint Depression Visibility Wind Speed Wind Dir Waves Ship Positions

Timothy C. Allen

Owner: American Commercial Lines LLC, Jeffersonville, IN. More information available from US FCC via Universal Licensing System and Coast Guard Vessel Documentation Center.

Last reported at 2018-Jul-20 16:00 UTC. Time now 2018-Jul-20 16:23 UTC.
Position N 29°56' W 093°03'.

Length 37 m; draft 3.2 m.

Type: Towing. MMSI: 367143690.

Date/timePositionNaut miles runAvg speedWind from/ knotsBaromVisibWave heightAir tempDewpointWater temp
2018-Jul-20 16:00N 29°56' W 093°03'0 0.0
2018-Jul-20 15:29N 29°56' W 093°03'0 0.0
2018-Jul-20 14:57N 29°56' W 093°03'0 0.0
2018-Jul-20 14:24N 29°56' W 093°03'0 0.0
2018-Jul-20 14:00N 29°56' W 093°03'0 0.0
2018-Jul-20 13:30N 29°56' W 093°03'0 0.0
2018-Jul-20 12:58N 29°56' W 093°03'0 0.0
2018-Jul-20 12:30N 29°56' W 093°03'0 0.9
2018-Jul-20 12:00N 29°56' W 093°02'2 2.8
2018-Jul-20 11:27N 29°56' W 093°01'0 0.4
2018-Jul-20 10:55N 29°56' W 093°00'0 0.0
2018-Jul-20 10:30N 29°56' W 093°00'0 0.0
2018-Jul-20 09:59N 29°56' W 093°00'0 0.0
2018-Jul-20 09:15N 29°56' W 093°00'1 3.1
2018-Jul-20 09:00N 29°56' W 092°60'2 4.2
2018-Jul-20 08:30N 29°56' W 092°57'2 3.7
2018-Jul-20 08:00N 29°56' W 092°55'1 2.4
2018-Jul-20 07:30N 29°57' W 092°54'0 0.0
2018-Jul-20 07:00N 29°57' W 092°54'0 0.0
2018-Jul-20 06:29N 29°57' W 092°54'0 0.0
2018-Jul-20 06:00N 29°57' W 092°54'0 0.0
2018-Jul-20 05:30N 29°57' W 092°54'0 0.0
2018-Jul-20 05:00N 29°57' W 092°54'0 0.4
2018-Jul-20 04:27N 29°57' W 092°53'1 2.0
2018-Jul-20 04:00N 29°57' W 092°53'0 0.0
2018-Jul-20 03:29N 29°57' W 092°53'0 0.0
2018-Jul-20 02:53N 29°57' W 092°53'0 0.0
2018-Jul-20 02:29N 29°57' W 092°53'0 0.0
2018-Jul-20 02:00N 29°57' W 092°53'0 0.0
2018-Jul-19 13:39N 29°57' W 092°53'0 0.0
2018-Jul-19 13:25N 29°57' W 092°53'0 0.0
2018-Jul-19 12:49N 29°57' W 092°53'0 0.0
2018-Jul-19 12:25N 29°57' W 092°53'0 0.0
2018-Jul-19 11:53N 29°57' W 092°53'0 0.0
2018-Jul-19 11:07N 29°57' W 092°53'0 0.0
2018-Jul-19 10:50N 29°57' W 092°53'0 0.0
2018-Jul-19 08:38N 29°57' W 092°53'0 0.0
2018-Jul-19 08:04N 29°57' W 092°53'0 0.0
2018-Jul-19 07:40N 29°57' W 092°53'0 0.0
2018-Jul-19 07:23N 29°57' W 092°53'0 0.0
2018-Jul-19 06:52N 29°57' W 092°53'0 0.0
2018-Jul-19 06:20N 29°57' W 092°53'0 0.0
2018-Jul-19 05:58N 29°57' W 092°53'26 3.5
2018-Jul-18 22:24N 29°52' W 092°23'2 4.5
2018-Jul-18 22:01N 29°51' W 092°21'3 5.3
2018-Jul-18 21:29N 29°50' W 092°18'2 4.9
2018-Jul-18 21:00N 29°49' W 092°16'2 3.3
2018-Jul-18 20:31N 29°48' W 092°15'3 5.3
2018-Jul-18 20:00N 29°47' W 092°12'3 5.4
2018-Jul-18 19:31N 29°47' W 092°09'3 6.0
2018-Jul-18 19:00N 29°48' W 092°05'3 5.9
2018-Jul-18 18:30N 29°49' W 092°02'3 6.0
2018-Jul-18 18:00N 29°50' W 091°59'3 6.0
2018-Jul-18 17:28N 29°51' W 091°55'50 1.7
2018-Jul-17 12:56N 30°24' W 091°12'0 0.0
2018-Jul-17 12:27N 30°24' W 091°12'95 3.2
2018-Jul-16 06:54N 31°59' W 091°10'3 9.0
2018-Jul-16 06:30N 31°59' W 091°06'5 9.0
2018-Jul-16 05:57N 32°04' W 091°03'4 9.3
2018-Jul-16 05:31N 32°07' W 091°06'4 7.7
2018-Jul-16 05:01N 32°07' W 091°02'4 8.8
2018-Jul-16 04:30N 32°11' W 090°60'5 9.3
2018-Jul-16 04:00N 32°16' W 090°58'5 9.2
2018-Jul-16 03:31N 32°19' W 090°54'3 6.5
2018-Jul-16 03:01N 32°21' W 090°57'3 6.5
2018-Jul-16 02:31N 32°24' W 090°60'4 8.2
2018-Jul-16 02:01N 32°26' W 091°03'5 8.8
2018-Jul-16 01:29N 32°29' W 091°07'4 9.1
2018-Jul-16 01:01N 32°34' W 091°06'5 8.9
2018-Jul-16 00:29N 32°38' W 091°09'4 8.5
2018-Jul-16 00:00N 32°41' W 091°06'4 7.5
2018-Jul-15 23:30N 32°44' W 091°04'  

Dump ship's entire track history